リーブルヴィル の空港の天気 - METARとTAF

リーブルヴィル国際空港 ( FOOL / LBV ) - ガボン リーブルヴィル
飛行場実況気象(Metar)
観測時間05/26 00:30 WAT (05/25 23:30 UTC)
風向・風速東 1m/s
視程8000m
天気現象
少しの雲 雲底高度 370m
少しの雲 雲底高度 580m
気温26℃
湿度94%
気圧1012hPa
METARFOOL 252330Z 10002KT 8000 FEW012 FEW019CB 26/25 Q1012 RETS TEMPO 4000 BR
過去の天気等 Google飛行場航空写真 Wunderground天気予報

過去48時間のMETAR

飛行場予報(TAF)
発表時間: 5/26 00:00 WAT (5/25 23:00 UTC)
予報対象時間: 26日1時 WAT ~ 27日7時 WAT
風向・風速不定 2m/s
視程10km以上
天気現象
全天の4割程度の雲 雲底高度 300m
少しの積乱雲 雲底高度 610m
全天の8割程度の雲 雲底高度 910m
26日2時 WAT ~ 26日7時 WAT に一時的に
視程4000m
天気現象雷雨
全天の8割程度の雲 雲底高度 240m
26日8時 WAT ~ 26日10時 WAT に徐々に
天気現象運行に影響にある天気現象が終了
TAF FOOL 252300Z 2600/2706 VRB03KT 9999 TS SCT010 FEW020CB BKN030
TEMPO 2601/2606 4000 TSRA BKN008
BECMG 2607/2609 NSW